createdAt,value
2018-03-29T00:00:09.681Z,20.72
2018-03-29T00:01:09.650Z,20.68
2018-03-29T00:02:09.594Z,20.69
2018-03-29T00:03:09.559Z,20.68
2018-03-29T00:04:09.512Z,20.54
2018-03-29T00:05:09.477Z,20.56
2018-03-29T00:06:09.424Z,20.54
2018-03-29T00:07:09.383Z,20.68
2018-03-29T00:08:09.338Z,20.68
2018-03-29T00:09:09.298Z,20.66
2018-03-29T00:10:09.251Z,20.68
2018-03-29T00:11:09.209Z,20.59
2018-03-29T00:12:09.169Z,20.54
2018-03-29T00:13:09.122Z,20.61
2018-03-29T00:14:09.092Z,20.74
2018-03-29T00:15:09.048Z,20.69
2018-03-29T00:16:08.998Z,20.66
2018-03-29T00:17:08.954Z,20.65
2018-03-29T00:18:08.922Z,20.68
2018-03-29T00:19:08.864Z,20.77
2018-03-29T00:20:08.831Z,20.65
2018-03-29T00:21:08.780Z,20.56
2018-03-29T00:22:15.873Z,20.64
2018-03-29T00:53:12.741Z,19.79
2018-03-29T00:54:12.686Z,19.73
2018-03-29T00:55:12.614Z,19.72
2018-03-29T00:56:12.563Z,19.76
2018-03-29T00:57:12.521Z,19.72
2018-03-29T00:58:12.470Z,19.75
2018-03-29T00:59:12.429Z,19.78
2018-03-29T01:00:12.384Z,19.76
2018-03-29T01:01:12.352Z,19.88
2018-03-29T01:02:12.293Z,19.88
2018-03-29T01:03:12.244Z,19.97
2018-03-29T01:04:12.196Z,19.97
2018-03-29T01:05:12.155Z,20.06
2018-03-29T01:06:12.110Z,20.02
2018-03-29T01:07:12.077Z,20.00
2018-03-29T01:08:12.028Z,20.05
2018-03-29T01:09:11.991Z,20.15
2018-03-29T01:10:11.965Z,20.23
2018-03-29T01:11:11.890Z,20.20
2018-03-29T01:12:11.860Z,20.23
2018-03-29T01:13:11.803Z,20.25
2018-03-29T01:14:11.763Z,20.34
2018-03-29T01:15:11.720Z,20.27
2018-03-29T01:16:11.679Z,20.30
2018-03-29T01:17:11.628Z,20.31
2018-03-29T01:18:11.586Z,20.33
2018-03-29T01:19:11.564Z,20.35
2018-03-29T01:20:11.503Z,20.34
2018-03-29T01:21:11.477Z,20.38
2018-03-29T01:22:11.438Z,20.35
2018-03-29T01:23:11.438Z,20.38
2018-03-29T01:24:11.325Z,20.42
2018-03-29T01:25:11.283Z,20.39
2018-03-29T01:26:11.245Z,20.49
2018-03-29T01:27:11.195Z,20.50
2018-03-29T01:28:11.153Z,20.42
2018-03-29T01:29:11.112Z,20.41
2018-03-29T01:30:11.065Z,20.46
2018-03-29T01:31:10.973Z,20.39
2018-03-29T01:32:10.934Z,20.47
2018-03-29T01:33:10.886Z,20.39
2018-03-29T01:34:10.855Z,20.43
2018-03-29T01:35:10.796Z,20.39
2018-03-29T01:36:10.760Z,20.46
2018-03-29T01:37:10.713Z,20.46
2018-03-29T01:38:10.668Z,20.51
2018-03-29T01:39:10.623Z,20.54
2018-03-29T01:40:10.577Z,20.58
2018-03-29T01:41:10.540Z,20.53
2018-03-29T01:42:10.501Z,20.49
2018-03-29T01:43:10.456Z,20.39
2018-03-29T01:44:10.405Z,20.51
2018-03-29T01:45:10.388Z,20.53
2018-03-29T01:46:10.335Z,20.42
2018-03-29T01:47:10.289Z,20.42
2018-03-29T01:48:10.239Z,20.46
2018-03-29T01:49:10.192Z,20.43
2018-03-29T01:50:10.152Z,20.49
2018-03-29T01:51:10.105Z,20.53
2018-03-29T01:52:10.061Z,20.53
2018-03-29T01:53:10.016Z,20.56
2018-03-29T01:54:09.978Z,20.58
2018-03-29T01:55:09.929Z,20.53
2018-03-29T01:56:09.888Z,20.53
2018-03-29T01:57:09.844Z,20.56
2018-03-29T01:58:09.802Z,20.42
2018-03-29T01:59:09.764Z,20.43
2018-03-29T02:00:09.713Z,20.46
2018-03-29T02:01:09.688Z,20.43
2018-03-29T02:02:09.683Z,20.50
2018-03-29T02:03:09.608Z,20.49
2018-03-29T02:04:09.540Z,20.54
2018-03-29T02:05:09.498Z,20.53
2018-03-29T02:06:09.458Z,20.47
2018-03-29T02:07:09.411Z,20.56
2018-03-29T02:08:09.381Z,20.50
2018-03-29T02:09:09.335Z,20.50
2018-03-29T02:10:09.287Z,20.49
2018-03-29T02:11:09.243Z,20.58
2018-03-29T02:12:09.204Z,20.49
2018-03-29T02:13:09.156Z,20.53
2018-03-29T02:14:09.111Z,20.56
2018-03-29T02:15:09.078Z,20.46
2018-03-29T02:16:09.028Z,20.43
2018-03-29T02:17:08.986Z,20.50
2018-03-29T02:18:08.939Z,20.49
2018-03-29T02:19:08.903Z,20.42
2018-03-29T02:20:08.850Z,20.43
2018-03-29T02:21:08.811Z,20.49
2018-03-29T02:22:08.765Z,20.51
2018-03-29T02:23:08.730Z,20.47
2018-03-29T02:24:08.678Z,20.46
2018-03-29T02:25:08.638Z,20.43
2018-03-29T02:26:08.596Z,20.49
2018-03-29T02:27:08.574Z,20.54
2018-03-29T02:28:08.506Z,20.46
2018-03-29T02:29:08.466Z,20.56
2018-03-29T02:30:08.419Z,20.43
2018-03-29T02:31:08.386Z,20.53
2018-03-29T02:32:08.335Z,20.39
2018-03-29T02:33:08.298Z,20.43
2018-03-29T02:34:08.245Z,20.43
2018-03-29T02:35:08.207Z,20.41
2018-03-29T02:36:08.161Z,20.46
2018-03-29T02:37:08.117Z,20.42
2018-03-29T02:38:08.073Z,20.47
2018-03-29T02:39:08.034Z,20.43
2018-03-29T02:40:07.995Z,20.42
2018-03-29T02:41:07.944Z,20.41
2018-03-29T02:42:07.910Z,20.46
2018-03-29T02:43:07.857Z,20.42
2018-03-29T02:44:07.817Z,20.41
2018-03-29T02:45:07.779Z,20.43
2018-03-29T02:46:07.729Z,20.49
2018-03-29T02:47:07.690Z,20.39
2018-03-29T02:48:07.660Z,20.39
2018-03-29T02:49:07.602Z,20.43
2018-03-29T02:50:07.565Z,20.41
2018-03-29T02:51:07.512Z,20.43
2018-03-29T02:52:07.479Z,20.43
2018-03-29T02:53:07.428Z,20.41
2018-03-29T02:54:07.392Z,20.42
2018-03-29T02:55:07.340Z,20.42
2018-03-29T02:56:07.339Z,20.50
2018-03-29T02:57:07.253Z,20.42
2018-03-29T02:58:07.213Z,20.53
2018-03-29T02:59:07.180Z,20.41
2018-03-29T03:00:07.128Z,20.50
2018-03-29T03:01:07.085Z,20.43
2018-03-29T03:02:07.035Z,20.42
2018-03-29T03:03:07.000Z,20.49
2018-03-29T03:04:06.952Z,20.54
2018-03-29T03:05:06.921Z,20.46
2018-03-29T03:06:06.865Z,20.46
2018-03-29T03:07:06.827Z,20.50
2018-03-29T03:08:06.791Z,20.46
2018-03-29T03:09:06.738Z,20.42
2018-03-29T03:10:06.697Z,20.38
2018-03-29T03:11:06.649Z,20.43
2018-03-29T03:12:06.608Z,20.41
2018-03-29T03:13:06.560Z,20.43
2018-03-29T03:14:06.518Z,20.43
2018-03-29T03:15:06.475Z,20.38
2018-03-29T03:16:06.434Z,20.39
2018-03-29T03:17:06.387Z,20.42
2018-03-29T03:18:06.343Z,20.43
2018-03-29T03:19:06.306Z,20.41
2018-03-29T03:20:06.259Z,20.41
2018-03-29T03:21:06.231Z,20.47
2018-03-29T03:22:06.175Z,20.41
2018-03-29T03:23:06.138Z,20.39
2018-03-29T03:24:06.090Z,20.47
2018-03-29T03:25:06.046Z,20.38
2018-03-29T03:26:06.005Z,20.39
2018-03-29T03:27:05.956Z,20.41
2018-03-29T03:28:05.916Z,20.47
2018-03-29T03:29:05.875Z,20.34
2018-03-29T03:30:05.835Z,20.35
2018-03-29T03:31:05.786Z,20.30
2018-03-29T03:32:05.739Z,20.33
2018-03-29T03:33:05.705Z,20.35
2018-03-29T03:34:05.658Z,20.27
2018-03-29T03:35:05.614Z,20.30
2018-03-29T03:36:05.574Z,20.34
2018-03-29T03:37:05.574Z,20.35
2018-03-29T03:38:05.479Z,20.35
2018-03-29T03:39:05.485Z,20.27
2018-03-29T03:40:05.395Z,20.35
2018-03-29T03:41:05.353Z,20.42
2018-03-29T03:42:05.306Z,20.35
2018-03-29T03:43:05.283Z,20.34
2018-03-29T03:44:05.225Z,20.38
2018-03-29T03:45:05.175Z,20.35
2018-03-29T03:46:05.137Z,20.35
2018-03-29T03:47:05.089Z,20.35
2018-03-29T03:48:05.050Z,20.27
2018-03-29T03:49:05.017Z,20.39
2018-03-29T03:50:04.974Z,20.41
2018-03-29T03:51:04.921Z,20.42
2018-03-29T03:52:04.877Z,20.38
2018-03-29T03:53:04.840Z,20.38
2018-03-29T03:54:04.790Z,20.30
2018-03-29T03:55:04.748Z,20.34
2018-03-29T03:56:04.704Z,20.42
2018-03-29T03:57:04.661Z,20.47
2018-03-29T03:58:04.612Z,20.27
2018-03-29T03:59:04.571Z,20.25
2018-03-29T04:00:04.528Z,20.30
2018-03-29T04:01:04.490Z,20.25
2018-03-29T04:02:04.441Z,20.39
2018-03-29T04:03:04.406Z,20.41
2018-03-29T04:04:04.377Z,20.28
2018-03-29T04:05:04.312Z,20.35
2018-03-29T04:06:04.282Z,20.31
2018-03-29T04:07:04.237Z,20.27
2018-03-29T04:08:04.185Z,20.39
2018-03-29T04:09:04.138Z,20.33
2018-03-29T04:10:04.107Z,20.27
2018-03-29T04:11:04.050Z,20.25
2018-03-29T04:12:04.017Z,20.34
2018-03-29T04:13:03.964Z,20.24
2018-03-29T04:14:03.928Z,20.38
2018-03-29T04:15:03.883Z,20.27
2018-03-29T04:16:03.847Z,20.25
2018-03-29T04:17:03.793Z,20.27
2018-03-29T04:18:03.763Z,20.28
2018-03-29T04:19:03.715Z,20.30
2018-03-29T04:20:03.663Z,20.25
2018-03-29T04:21:03.621Z,20.27
2018-03-29T04:22:03.582Z,20.30
2018-03-29T04:23:03.537Z,20.28
2018-03-29T04:24:03.491Z,20.28
2018-03-29T04:25:03.444Z,20.30
2018-03-29T04:26:03.410Z,20.25
2018-03-29T04:27:03.360Z,20.31
2018-03-29T04:28:03.362Z,20.30
2018-03-29T04:29:03.269Z,20.28
2018-03-29T04:30:03.245Z,20.30
2018-03-29T04:31:03.184Z,20.28
2018-03-29T04:32:03.152Z,20.25
2018-03-29T04:33:03.099Z,20.27
2018-03-29T04:34:03.055Z,20.30
2018-03-29T04:35:03.011Z,20.31
2018-03-29T04:36:02.972Z,20.31
2018-03-29T04:37:02.925Z,20.25
2018-03-29T04:38:02.887Z,20.30
2018-03-29T04:39:02.839Z,20.30
2018-03-29T04:40:02.798Z,20.27
2018-03-29T04:41:02.751Z,20.21
2018-03-29T04:42:02.711Z,20.27
2018-03-29T04:43:02.666Z,20.27
2018-03-29T04:44:02.624Z,20.21
2018-03-29T04:45:02.581Z,20.24
2018-03-29T04:46:02.533Z,20.31
2018-03-29T04:47:02.507Z,20.27
2018-03-29T04:48:02.455Z,20.21
2018-03-29T04:49:02.410Z,20.02
2018-03-29T04:50:02.362Z,20.03
2018-03-29T04:51:02.327Z,20.18
2018-03-29T04:52:02.273Z,20.05
2018-03-29T04:53:02.248Z,20.02
2018-03-29T04:54:02.203Z,20.05
2018-03-29T04:55:02.165Z,20.08
2018-03-29T04:56:02.100Z,20.02
2018-03-29T04:57:02.071Z,20.05
2018-03-29T04:58:02.013Z,20.03
2018-03-29T04:59:01.983Z,20.03
2018-03-29T05:00:01.936Z,19.93
2018-03-29T05:01:01.902Z,19.93
2018-03-29T05:02:01.844Z,20.03
2018-03-29T05:03:01.810Z,20.05
2018-03-29T05:04:01.757Z,20.09
2018-03-29T05:05:01.716Z,20.02
2018-03-29T05:06:01.669Z,20.05
2018-03-29T05:07:01.633Z,19.98
2018-03-29T05:08:01.592Z,20.02
2018-03-29T05:09:01.543Z,20.08
2018-03-29T05:10:01.494Z,20.00
2018-03-29T05:11:01.454Z,20.02
2018-03-29T05:12:01.408Z,20.08
2018-03-29T05:13:01.372Z,20.06
2018-03-29T05:14:01.324Z,20.09
2018-03-29T05:15:01.279Z,20.06
2018-03-29T05:16:01.235Z,20.05
2018-03-29T05:17:01.217Z,20.08
2018-03-29T05:18:01.147Z,20.15
2018-03-29T05:19:01.122Z,20.05
2018-03-29T05:20:01.063Z,20.06
2018-03-29T05:21:01.020Z,20.05
2018-03-29T05:22:00.972Z,20.02
2018-03-29T05:23:00.939Z,20.02
2018-03-29T05:24:00.892Z,20.09
2018-03-29T05:25:00.850Z,20.06
2018-03-29T05:26:00.799Z,20.05
2018-03-29T05:27:00.764Z,20.13
2018-03-29T05:28:00.713Z,20.13
2018-03-29T05:29:00.677Z,20.30
2018-03-29T05:30:00.636Z,20.18
2018-03-29T05:31:00.587Z,20.30
2018-03-29T05:32:00.548Z,20.25
2018-03-29T05:33:00.533Z,20.31
2018-03-29T05:34:00.456Z,20.31
2018-03-29T05:35:00.411Z,20.27
2018-03-29T05:36:00.376Z,20.25
2018-03-29T05:37:00.324Z,20.30
2018-03-29T05:38:00.277Z,20.25
2018-03-29T05:39:00.239Z,20.30
2018-03-29T05:40:00.196Z,20.23
2018-03-29T05:41:00.148Z,20.30
2018-03-29T05:42:00.109Z,20.25
2018-03-29T05:43:00.063Z,20.31
2018-03-29T05:44:00.020Z,20.28
2018-03-29T05:44:59.975Z,20.27
2018-03-29T05:45:59.952Z,20.30
2018-03-29T05:46:59.896Z,20.31
2018-03-29T05:47:59.857Z,20.27
2018-03-29T05:48:59.809Z,20.39
2018-03-29T05:49:59.766Z,20.33
2018-03-29T05:50:59.726Z,20.31
2018-03-29T05:51:59.683Z,20.39
2018-03-29T05:52:59.635Z,20.41
2018-03-29T05:53:59.596Z,20.46
2018-03-29T05:54:59.541Z,20.35
2018-03-29T05:55:59.508Z,20.38
2018-03-29T05:56:59.456Z,20.39
2018-03-29T05:57:59.418Z,20.39
2018-03-29T05:58:59.371Z,20.35
2018-03-29T05:59:59.363Z,20.31
2018-03-29T06:00:59.302Z,20.33
2018-03-29T06:01:59.245Z,20.46
2018-03-29T06:02:59.199Z,20.42
2018-03-29T06:03:59.155Z,20.35
2018-03-29T06:04:59.108Z,20.31
2018-03-29T06:05:59.069Z,20.47
2018-03-29T06:06:59.027Z,20.38
2018-03-29T06:07:58.982Z,20.33
2018-03-29T06:08:58.936Z,20.38
2018-03-29T06:09:58.897Z,20.35
2018-03-29T06:10:58.859Z,20.46
2018-03-29T06:11:58.808Z,20.43
2018-03-29T06:12:58.777Z,20.35
2018-03-29T06:13:58.719Z,20.38
2018-03-29T06:14:58.679Z,20.42
2018-03-29T06:15:58.662Z,20.42
2018-03-29T06:16:58.591Z,20.47
2018-03-29T06:17:58.550Z,20.35
2018-03-29T06:18:58.510Z,20.41
2018-03-29T06:19:58.459Z,20.42
2018-03-29T06:21:07.048Z,20.42
2018-03-29T06:22:51.752Z,20.39
2018-03-29T06:23:51.690Z,20.38
2018-03-29T06:24:51.646Z,20.38
2018-03-29T06:25:51.608Z,20.49
2018-03-29T06:26:51.565Z,20.47
2018-03-29T06:27:51.532Z,20.39
2018-03-29T06:28:51.476Z,20.39
2018-03-29T06:29:51.449Z,20.42
2018-03-29T06:30:51.386Z,20.49
2018-03-29T06:31:51.352Z,20.50
2018-03-29T06:32:51.304Z,20.53
2018-03-29T06:33:51.262Z,20.46
2018-03-29T06:34:51.218Z,20.56
2018-03-29T06:35:51.176Z,20.43
2018-03-29T06:36:51.152Z,20.56
2018-03-29T06:37:51.089Z,20.54
2018-03-29T06:38:51.045Z,20.51
2018-03-29T06:39:51.004Z,20.50
2018-03-29T06:40:50.969Z,20.50
2018-03-29T06:41:50.915Z,20.54
2018-03-29T06:42:50.880Z,20.56
2018-03-29T06:43:50.828Z,20.50
2018-03-29T06:44:50.797Z,20.53
2018-03-29T06:45:50.744Z,20.47
2018-03-29T06:46:50.702Z,20.56
2018-03-29T06:47:50.660Z,20.53
2018-03-29T06:48:50.617Z,20.54
2018-03-29T06:49:50.571Z,20.58
2018-03-29T06:50:50.530Z,20.53
2018-03-29T06:51:50.486Z,20.56
2018-03-29T06:52:50.444Z,20.56
2018-03-29T06:53:50.402Z,20.61
2018-03-29T06:54:50.392Z,20.56
2018-03-29T06:55:50.315Z,20.59
2018-03-29T06:56:50.266Z,20.61
2018-03-29T06:57:50.231Z,20.62
2018-03-29T06:58:50.207Z,20.58
2018-03-29T06:59:50.145Z,20.56
2018-03-29T07:00:50.097Z,20.56
2018-03-29T07:01:50.053Z,20.69
2018-03-29T07:02:50.022Z,20.69
2018-03-29T07:03:49.970Z,20.59
2018-03-29T07:04:49.928Z,20.69
2018-03-29T07:05:49.884Z,20.68
2018-03-29T07:06:49.843Z,20.69
2018-03-29T07:07:49.798Z,20.72
2018-03-29T07:08:49.756Z,20.74
2018-03-29T07:09:49.715Z,20.74
2018-03-29T07:10:49.667Z,20.77
2018-03-29T07:11:49.639Z,20.71
2018-03-29T07:12:49.580Z,20.76
2018-03-29T07:13:49.545Z,20.86
2018-03-29T07:14:49.512Z,20.76
2018-03-29T07:15:49.457Z,20.76
2018-03-29T07:16:49.434Z,20.77
2018-03-29T07:17:49.381Z,20.77
2018-03-29T07:18:49.335Z,20.74
2018-03-29T07:19:49.289Z,20.77
2018-03-29T07:20:49.293Z,20.76
2018-03-29T07:21:49.204Z,20.79
2018-03-29T07:22:49.154Z,20.79
2018-03-29T07:23:49.113Z,20.77
2018-03-29T07:24:49.070Z,20.77
2018-03-29T07:25:49.034Z,20.72
2018-03-29T07:26:48.979Z,20.81
2018-03-29T07:27:48.940Z,20.86
2018-03-29T07:28:48.941Z,20.84
2018-03-29T07:29:48.856Z,20.83
2018-03-29T07:30:48.819Z,20.86
2018-03-29T07:31:48.776Z,20.80
2018-03-29T07:32:48.723Z,20.80
2018-03-29T07:33:48.682Z,20.81
2018-03-29T07:34:48.639Z,20.84
2018-03-29T07:35:48.606Z,20.83
2018-03-29T07:36:48.558Z,20.80
2018-03-29T07:37:48.509Z,20.86
2018-03-29T07:38:48.467Z,20.80
2018-03-29T07:39:48.426Z,20.87
2018-03-29T07:40:48.384Z,20.89
2018-03-29T07:41:48.341Z,20.83
2018-03-29T07:42:48.296Z,20.80
2018-03-29T07:43:48.259Z,20.80
2018-03-29T07:44:48.222Z,20.81
2018-03-29T07:45:48.180Z,20.79
2018-03-29T07:46:48.132Z,20.86
2018-03-29T07:47:48.100Z,20.81
2018-03-29T07:48:48.051Z,20.79
2018-03-29T07:49:48.039Z,20.80
2018-03-29T07:50:47.960Z,20.74
2018-03-29T07:51:47.914Z,20.84
2018-03-29T07:52:47.871Z,20.84
2018-03-29T07:53:47.834Z,20.84
2018-03-29T07:54:47.784Z,20.80
2018-03-29T07:55:47.752Z,20.80
2018-03-29T07:56:47.697Z,20.83
2018-03-29T07:57:47.664Z,20.83
2018-03-29T07:58:47.624Z,20.71
2018-03-29T07:59:47.584Z,20.90
2018-03-29T08:00:47.534Z,20.77
2018-03-29T08:01:47.487Z,20.80
2018-03-29T08:02:47.456Z,20.72
2018-03-29T08:03:47.423Z,20.74
2018-03-29T08:04:47.363Z,20.77
2018-03-29T08:05:47.315Z,20.74
2018-03-29T08:06:47.269Z,20.77
2018-03-29T08:07:47.228Z,20.77
2018-03-29T08:08:47.185Z,20.69
2018-03-29T08:09:47.140Z,20.76
2018-03-29T08:10:47.103Z,20.72
2018-03-29T08:11:47.063Z,20.76
2018-03-29T08:12:47.030Z,20.76
2018-03-29T08:13:47.042Z,20.68
2018-03-29T08:14:46.931Z,20.74
2018-03-29T08:15:46.891Z,20.76
2018-03-29T08:16:46.894Z,20.72
2018-03-29T08:17:46.818Z,20.76
2018-03-29T08:18:46.758Z,20.66
2018-03-29T08:19:46.728Z,20.71
2018-03-29T08:20:46.667Z,20.77
2018-03-29T08:21:46.659Z,20.68
2018-03-29T08:22:46.584Z,20.71
2018-03-29T08:23:46.546Z,20.62
2018-03-29T08:24:46.508Z,20.68
2018-03-29T08:25:46.468Z,20.76
2018-03-29T08:26:46.412Z,20.72
2018-03-29T08:27:46.370Z,20.74
2018-03-29T08:28:46.332Z,20.69
2018-03-29T08:29:46.283Z,20.68
2018-03-29T08:30:46.247Z,20.77
2018-03-29T08:31:46.205Z,20.74
2018-03-29T08:32:46.158Z,20.80
2018-03-29T08:33:46.115Z,20.86
2018-03-29T08:34:46.077Z,20.76
2018-03-29T08:35:46.029Z,20.66
2018-03-29T08:36:45.983Z,20.76
2018-03-29T08:37:45.937Z,20.72
2018-03-29T08:38:45.902Z,20.81
2018-03-29T08:39:45.852Z,20.77
2018-03-29T08:40:45.811Z,20.76
2018-03-29T08:41:45.766Z,20.74
2018-03-29T08:42:45.751Z,20.66
2018-03-29T08:43:45.823Z,20.58
2018-03-29T08:44:45.653Z,20.71
2018-03-29T08:45:45.607Z,20.74
2018-03-29T08:46:45.555Z,20.77
2018-03-29T08:47:45.557Z,20.72
2018-03-29T08:48:45.469Z,20.76
2018-03-29T08:49:45.425Z,20.65
2018-03-29T08:50:45.384Z,20.71
2018-03-29T08:51:45.413Z,20.69
2018-03-29T08:52:45.299Z,20.69
2018-03-29T08:53:45.255Z,20.77
2018-03-29T08:54:45.330Z,20.74
2018-03-29T08:55:45.191Z,20.80
2018-03-29T08:56:45.128Z,20.80
2018-03-29T08:57:45.083Z,20.76
2018-03-29T08:58:45.039Z,20.76
2018-03-29T08:59:45.003Z,20.77
2018-03-29T09:00:44.952Z,20.69
2018-03-29T09:01:44.909Z,20.77
2018-03-29T09:02:44.874Z,20.79
2018-03-29T09:03:44.852Z,20.76
2018-03-29T09:04:44.784Z,20.79
2018-03-29T09:05:44.737Z,20.76
2018-03-29T09:06:44.706Z,20.81
2018-03-29T09:07:44.657Z,20.83
2018-03-29T09:08:44.607Z,20.72
2018-03-29T09:09:44.572Z,20.74
2018-03-29T09:10:44.527Z,20.74
2018-03-29T09:11:44.484Z,20.83
2018-03-29T09:12:44.444Z,20.80
2018-03-29T09:13:44.403Z,20.84
2018-03-29T09:14:44.352Z,20.76
2018-03-29T09:15:44.321Z,20.77
2018-03-29T09:16:44.264Z,20.80
2018-03-29T09:17:44.225Z,20.77
2018-03-29T09:18:44.181Z,20.74
2018-03-29T09:19:44.142Z,20.76
2018-03-29T09:20:44.093Z,20.80
2018-03-29T09:21:44.063Z,20.76
2018-03-29T09:22:44.015Z,20.79
2018-03-29T09:23:43.972Z,20.80
2018-03-29T09:24:43.935Z,20.76
2018-03-29T09:25:43.882Z,20.84
2018-03-29T09:26:43.856Z,20.84
2018-03-29T09:27:43.813Z,20.76
2018-03-29T09:28:43.752Z,20.76
2018-03-29T09:29:43.707Z,20.76
2018-03-29T09:30:43.668Z,20.76
2018-03-29T09:31:43.622Z,20.66
2018-03-29T09:32:43.583Z,20.71
2018-03-29T09:33:43.540Z,20.79
2018-03-29T09:34:43.495Z,20.68
2018-03-29T09:35:43.459Z,20.65
2018-03-29T09:36:43.413Z,20.76
2018-03-29T09:37:43.372Z,20.71
2018-03-29T09:38:43.328Z,20.68
2018-03-29T09:39:43.278Z,20.68
2018-03-29T09:40:43.238Z,20.81
2018-03-29T09:41:43.194Z,20.74
2018-03-29T09:42:43.153Z,20.72
2018-03-29T09:43:43.106Z,20.76
2018-03-29T09:44:43.081Z,20.71
2018-03-29T09:45:43.025Z,20.77
2018-03-29T09:46:42.995Z,20.80
2018-03-29T09:47:42.972Z,20.74
2018-03-29T09:48:42.901Z,20.77
2018-03-29T09:49:42.857Z,20.80
2018-03-29T09:50:42.814Z,20.68
2018-03-29T09:51:42.764Z,20.76
2018-03-29T09:52:42.723Z,20.74
2018-03-29T09:53:42.679Z,20.74
2018-03-29T09:54:42.639Z,20.72
2018-03-29T09:55:42.604Z,20.68
2018-03-29T09:56:42.556Z,20.76
2018-03-29T09:57:42.507Z,20.83
2018-03-29T09:58:42.469Z,20.74
2018-03-29T09:59:42.426Z,20.76
2018-03-29T10:00:42.377Z,20.84
2018-03-29T10:01:42.339Z,20.79
2018-03-29T10:02:42.293Z,20.66
2018-03-29T10:03:42.266Z,20.71
2018-03-29T10:04:42.209Z,20.74
2018-03-29T10:05:42.164Z,20.64
2018-03-29T10:06:42.120Z,20.74
2018-03-29T10:07:42.080Z,20.71
2018-03-29T10:08:42.040Z,20.79
2018-03-29T10:09:41.991Z,20.76
2018-03-29T10:10:41.951Z,20.77
2018-03-29T10:11:41.919Z,20.79
2018-03-29T10:12:41.865Z,20.71
2018-03-29T10:13:41.819Z,20.71
2018-03-29T10:14:41.778Z,20.68
2018-03-29T10:15:41.733Z,20.71
2018-03-29T10:16:41.691Z,20.77
2018-03-29T10:17:41.652Z,20.79
2018-03-29T10:18:41.607Z,20.71
2018-03-29T10:19:41.587Z,20.74
2018-03-29T10:20:41.530Z,20.71
2018-03-29T10:21:41.475Z,20.68
2018-03-29T10:22:41.439Z,20.79
2018-03-29T10:23:41.397Z,20.83
2018-03-29T10:24:41.348Z,20.79
2018-03-29T10:25:41.316Z,20.72
2018-03-29T10:26:41.351Z,20.77
2018-03-29T10:27:41.229Z,20.65
2018-03-29T10:28:41.175Z,20.66
2018-03-29T10:29:41.137Z,20.69
2018-03-29T10:30:41.105Z,20.72
2018-03-29T10:31:41.057Z,20.79
2018-03-29T10:32:41.010Z,20.66
2018-03-29T10:33:40.973Z,20.71
2018-03-29T10:34:40.935Z,20.66
2018-03-29T10:35:40.920Z,20.79
2018-03-29T10:36:40.839Z,20.69
2018-03-29T10:37:40.802Z,20.74
2018-03-29T10:38:40.749Z,20.65
2018-03-29T10:39:40.707Z,20.71
2018-03-29T10:40:40.668Z,20.68
2018-03-29T10:41:40.620Z,20.81
2018-03-29T10:42:40.582Z,20.71
2018-03-29T10:43:40.541Z,20.76
2018-03-29T10:44:40.500Z,20.84
2018-03-29T10:45:40.456Z,20.81
2018-03-29T10:46:40.417Z,20.72
2018-03-29T10:47:40.376Z,20.72
2018-03-29T10:48:40.328Z,20.79
2018-03-29T10:49:40.276Z,20.80
2018-03-29T10:50:40.232Z,20.71
2018-03-29T10:51:40.195Z,20.74
2018-03-29T10:52:40.148Z,20.76
2018-03-29T10:53:40.113Z,20.72
2018-03-29T10:54:40.077Z,20.76
2018-03-29T10:55:40.017Z,20.72
2018-03-29T10:56:39.979Z,20.77
2018-03-29T10:57:39.930Z,20.72
2018-03-29T10:58:39.886Z,20.71
2018-03-29T10:59:39.847Z,20.72
2018-03-29T11:00:39.801Z,20.69
2018-03-29T11:01:39.761Z,20.77
2018-03-29T11:02:39.717Z,20.74
2018-03-29T11:03:39.676Z,20.66
2018-03-29T11:04:39.630Z,20.68
2018-03-29T11:05:39.588Z,20.71
2018-03-29T11:06:39.550Z,20.71
2018-03-29T11:07:39.512Z,20.79
2018-03-29T11:08:39.467Z,20.72
2018-03-29T11:09:39.427Z,20.69
2018-03-29T11:10:39.377Z,20.74
2018-03-29T11:11:39.334Z,20.74
2018-03-29T11:12:39.307Z,20.79
2018-03-29T11:13:39.244Z,20.69
2018-03-29T11:14:39.203Z,20.71
2018-03-29T11:15:39.158Z,20.68
2018-03-29T11:16:39.115Z,20.80
2018-03-29T11:17:39.072Z,20.72
2018-03-29T11:18:39.076Z,20.71
2018-03-29T11:19:38.994Z,20.68
2018-03-29T11:20:38.942Z,20.58
2018-03-29T11:21:38.902Z,20.71
2018-03-29T11:22:38.858Z,20.69
2018-03-29T11:23:38.820Z,20.76
2018-03-29T11:24:38.775Z,20.69
2018-03-29T11:25:38.733Z,20.71
2018-03-29T11:26:38.685Z,20.68
2018-03-29T11:27:38.649Z,20.76
2018-03-29T11:28:38.599Z,20.79
2018-03-29T11:29:38.557Z,20.76
2018-03-29T11:30:38.533Z,20.80
2018-03-29T11:31:38.478Z,20.81
2018-03-29T11:32:38.431Z,20.76
2018-03-29T11:33:38.383Z,20.80
2018-03-29T11:34:38.341Z,20.79
2018-03-29T11:35:38.300Z,20.71
2018-03-29T11:36:38.253Z,20.80
2018-03-29T11:37:38.211Z,20.76
2018-03-29T11:38:38.174Z,20.79
2018-03-29T11:39:38.128Z,20.72
2018-03-29T11:40:38.118Z,20.81
2018-03-29T11:41:38.043Z,20.74
2018-03-29T11:42:37.999Z,20.61
2018-03-29T11:43:37.962Z,20.69
2018-03-29T11:44:37.916Z,20.68
2018-03-29T11:45:37.873Z,20.77
2018-03-29T11:46:37.825Z,20.80
2018-03-29T11:47:37.789Z,20.79
2018-03-29T11:48:37.742Z,20.81
2018-03-29T11:49:37.698Z,20.74
2018-03-29T11:50:37.661Z,20.79
2018-03-29T11:51:37.610Z,20.74
2018-03-29T11:52:37.572Z,20.76
2018-03-29T11:53:37.522Z,20.65
2018-03-29T11:54:37.481Z,20.76
2018-03-29T11:55:37.443Z,20.76
2018-03-29T11:56:37.406Z,20.76
2018-03-29T11:57:37.357Z,20.81
2018-03-29T11:58:37.324Z,20.79
2018-03-29T11:59:37.266Z,20.76
2018-03-29T12:00:37.221Z,20.81
2018-03-29T12:01:37.184Z,20.81
2018-03-29T12:02:37.147Z,20.74
2018-03-29T12:03:37.097Z,20.76
2018-03-29T12:04:37.056Z,20.79
2018-03-29T12:05:37.007Z,20.71
2018-03-29T12:06:36.966Z,20.68
2018-03-29T12:07:36.930Z,20.71
2018-03-29T12:08:36.878Z,20.59
2018-03-29T12:09:36.839Z,20.69
2018-03-29T12:10:36.793Z,20.69
2018-03-29T12:11:36.756Z,20.71
2018-03-29T12:12:36.707Z,20.62
2018-03-29T12:13:36.662Z,20.71
2018-03-29T12:14:36.630Z,20.76
2018-03-29T12:15:36.578Z,20.77
2018-03-29T12:16:36.545Z,20.77
2018-03-29T12:17:36.495Z,20.72
2018-03-29T12:18:36.454Z,20.72
2018-03-29T12:19:36.405Z,20.68
2018-03-29T12:20:36.365Z,20.76
2018-03-29T12:21:36.319Z,20.68
2018-03-29T12:22:36.279Z,20.68
2018-03-29T12:23:36.232Z,20.71
2018-03-29T12:24:36.188Z,20.76
2018-03-29T12:25:36.149Z,20.74
2018-03-29T12:26:36.105Z,20.69
2018-03-29T12:27:36.071Z,20.80
2018-03-29T12:28:36.029Z,20.69
2018-03-29T12:29:35.992Z,20.74
2018-03-29T12:30:35.933Z,20.77
2018-03-29T12:31:35.897Z,20.77
2018-03-29T12:32:35.856Z,20.62
2018-03-29T12:33:35.807Z,20.72
2018-03-29T12:34:35.767Z,20.79
2018-03-29T12:35:35.722Z,20.83
2018-03-29T12:36:35.677Z,20.77
2018-03-29T12:37:35.633Z,20.76
2018-03-29T12:38:35.590Z,20.80
2018-03-29T12:39:35.581Z,20.71
2018-03-29T12:40:35.514Z,20.84
2018-03-29T12:41:35.458Z,20.76
2018-03-29T12:42:35.419Z,20.77
2018-03-29T12:43:35.382Z,20.80
2018-03-29T12:44:35.331Z,20.72
2018-03-29T12:45:35.294Z,20.72
2018-03-29T12:46:35.271Z,20.81
2018-03-29T12:47:35.238Z,20.76
2018-03-29T12:48:35.183Z,20.66
2018-03-29T12:49:35.135Z,20.79
2018-03-29T12:50:35.098Z,20.79
2018-03-29T12:51:35.113Z,20.76
2018-03-29T12:52:35.010Z,20.71
2018-03-29T12:53:34.960Z,20.74
2018-03-29T12:54:34.900Z,20.76
2018-03-29T12:55:34.922Z,20.69
2018-03-29T12:56:34.812Z,20.68
2018-03-29T12:57:34.776Z,20.79
2018-03-29T12:58:34.730Z,20.80
2018-03-29T12:59:34.692Z,20.68
2018-03-29T13:00:34.646Z,20.71
2018-03-29T13:01:34.606Z,20.69
2018-03-29T13:02:34.565Z,20.71
2018-03-29T13:03:34.518Z,20.69
2018-03-29T13:04:34.493Z,20.69
2018-03-29T13:05:34.441Z,20.68
2018-03-29T13:06:34.399Z,20.74
2018-03-29T13:07:34.351Z,20.62
2018-03-29T13:08:34.306Z,20.65
2018-03-29T13:09:34.255Z,20.61
2018-03-29T13:10:34.218Z,20.69
2018-03-29T13:11:34.173Z,20.66
2018-03-29T13:12:34.127Z,20.71
2018-03-29T13:13:34.087Z,20.76
2018-03-29T13:14:34.045Z,20.81
2018-03-29T13:15:34.030Z,20.65
2018-03-29T13:16:33.961Z,20.68
2018-03-29T13:17:33.914Z,20.68
2018-03-29T13:18:33.867Z,20.66
2018-03-29T13:19:33.826Z,20.69
2018-03-29T13:20:33.787Z,20.76
2018-03-29T13:21:33.747Z,20.72
2018-03-29T13:22:33.703Z,20.72